Orlando, Florida
Traffic Map
Current Weather Conditions
Orlando, Florida
Clear
Clear
78°
Feels Like: 80°
Wind Chill: 78° Ceiling: Unl
Heat Index: 80° Visibility: 10mi
Dew Point: 64° Wind: 12mph
Humidity: 62% Direction: 170° (S)
Pressure: 30.06in Gusts: 0mph
Raw Report DataKORL 211653Z 17010KT 10SM CLR 26/18 A3006 RMK AO2 RAB11E19 SLP184 P0000 T02560178
Traffic Incident Summary
Active as of:
Severity:
Category:
InformationThere was an issue retrieving the traffic information for this location. Please try a different location or try again shortly.
Advertisements
Track Severe Weather on mobile